createdAt,value
2023-02-25T00:04:44.466Z,96735.70
2023-02-25T00:09:52.564Z,96727.45
2023-02-25T00:15:00.122Z,96723.50
2023-02-25T00:20:01.827Z,96705.63
2023-02-25T00:25:03.671Z,96705.29
2023-02-25T00:30:06.104Z,96693.60
2023-02-25T00:35:12.432Z,96684.98
2023-02-25T00:40:14.686Z,96674.46
2023-02-25T00:45:17.592Z,96671.91
2023-02-25T00:50:19.365Z,96670.27
2023-02-25T00:55:21.008Z,96676.37
2023-02-25T01:00:22.751Z,96679.98
2023-02-25T01:05:25.299Z,96661.66
2023-02-25T01:10:28.195Z,96656.42
2023-02-25T01:15:30.829Z,96652.38
2023-02-25T01:20:39.033Z,96647.84
2023-02-25T01:25:41.056Z,96613.03
2023-02-25T01:30:42.860Z,96633.52
2023-02-25T01:35:44.617Z,96636.10
2023-02-25T01:40:46.356Z,96636.17
2023-02-25T01:45:48.502Z,96645.07
2023-02-25T01:50:54.106Z,96661.23
2023-02-25T01:55:58.439Z,96653.48
2023-02-25T02:01:01.085Z,96636.20
2023-02-25T02:06:22.539Z,96637.09
2023-02-25T02:11:24.341Z,96633.77
2023-02-25T02:16:38.410Z,96630.29
2023-02-25T02:22:02.058Z,96636.06
2023-02-25T02:27:09.474Z,96627.23
2023-02-25T02:32:14.739Z,96622.06
2023-02-25T02:37:41.639Z,96621.89
2023-02-25T02:42:49.542Z,96622.39
2023-02-25T02:47:58.923Z,96645.61
2023-02-25T02:53:09.822Z,96643.46
2023-02-25T02:58:24.147Z,96656.20
2023-02-25T03:03:36.657Z,96664.70
2023-02-25T03:08:46.585Z,96684.39
2023-02-25T03:13:48.464Z,96694.27
2023-02-25T03:19:18.532Z,96688.60
2023-02-25T03:24:23.470Z,96692.97
2023-02-25T03:29:28.448Z,96694.40
2023-02-25T03:34:36.054Z,96706.11
2023-02-25T03:39:42.066Z,96711.07
2023-02-25T03:44:55.014Z,96718.39
2023-02-25T03:50:07.025Z,96718.94
2023-02-25T03:55:10.322Z,96719.10
2023-02-25T04:00:19.197Z,96712.35
2023-02-25T04:05:23.122Z,96708.64
2023-02-25T04:10:25.660Z,96706.12
2023-02-25T04:15:27.632Z,96699.23
2023-02-25T04:20:30.107Z,96693.17
2023-02-25T04:25:31.823Z,96692.02
2023-02-25T04:30:34.448Z,96693.40
2023-02-25T04:35:36.304Z,96691.56
2023-02-25T04:40:38.028Z,96688.89
2023-02-25T04:45:48.262Z,96687.86
2023-02-25T04:50:49.935Z,96695.61
2023-02-25T04:55:51.694Z,96702.16
2023-02-25T05:00:54.945Z,96709.06
2023-02-25T05:05:57.158Z,96711.08
2023-02-25T05:10:59.040Z,96705.16
2023-02-25T05:16:16.504Z,96712.40
2023-02-25T05:21:21.565Z,96711.38
2023-02-25T05:26:24.953Z,96714.10
2023-02-25T05:31:26.989Z,96718.17
2023-02-25T05:36:29.590Z,96718.85
2023-02-25T05:41:31.615Z,96706.90
2023-02-25T05:46:34.011Z,96710.80
2023-02-25T05:51:35.941Z,96717.21
2023-02-25T05:56:37.702Z,96715.70
2023-02-25T06:01:39.445Z,96718.41
2023-02-25T06:06:41.912Z,96713.69
2023-02-25T06:11:43.744Z,96720.77
2023-02-25T06:16:45.554Z,96727.00
2023-02-25T06:21:47.407Z,96731.21
2023-02-25T06:26:49.101Z,96729.88
2023-02-25T06:31:50.902Z,96729.17
2023-02-25T06:36:52.946Z,96738.96
2023-02-25T06:41:54.719Z,96734.21
2023-02-25T06:46:56.743Z,96713.48
2023-02-25T06:51:58.430Z,96762.08
2023-02-25T06:57:00.818Z,96770.37
2023-02-25T07:02:02.672Z,96765.65
2023-02-25T07:07:04.475Z,96766.00
2023-02-25T07:12:06.296Z,96778.81
2023-02-25T07:17:08.091Z,96778.30
2023-02-25T07:22:15.878Z,96754.99
2023-02-25T07:27:17.564Z,96752.98
2023-02-25T07:32:19.436Z,96756.37
2023-02-25T07:37:21.498Z,96752.48
2023-02-25T07:42:23.586Z,96756.52
2023-02-25T07:47:25.329Z,96754.79
2023-02-25T07:52:27.154Z,96751.52
2023-02-25T07:57:29.113Z,96754.09
2023-02-25T08:02:30.840Z,96752.13
2023-02-25T08:07:32.900Z,96747.31
2023-02-25T08:12:34.733Z,96746.64
2023-02-25T08:17:36.390Z,96760.30
2023-02-25T08:22:38.468Z,96764.77
2023-02-25T08:27:40.294Z,96758.02
2023-02-25T08:32:42.123Z,96760.33
2023-02-25T08:37:45.375Z,96763.61
2023-02-25T08:42:47.261Z,96752.10
2023-02-25T08:47:49.550Z,96755.27
2023-02-25T08:52:51.856Z,96746.41
2023-02-25T08:57:54.155Z,96742.87
2023-02-25T09:02:55.808Z,96748.55
2023-02-25T09:07:59.017Z,96750.81
2023-02-25T09:13:00.754Z,96746.58
2023-02-25T09:18:02.420Z,96744.66
2023-02-25T09:23:04.350Z,96745.95
2023-02-25T09:28:08.115Z,96721.35
2023-02-25T09:33:10.010Z,96740.36
2023-02-25T09:38:13.025Z,96748.05
2023-02-25T09:43:23.726Z,96755.79
2023-02-25T09:48:28.891Z,96770.50
2023-02-25T09:53:41.903Z,96789.30
2023-02-25T09:58:46.784Z,96791.31
2023-02-25T10:04:02.001Z,96798.33
2023-02-25T10:09:14.844Z,96789.72
2023-02-25T10:14:49.609Z,96783.95
2023-02-25T10:20:18.390Z,96792.86
2023-02-25T10:25:28.188Z,96786.21
2023-02-25T10:31:02.084Z,96793.00
2023-02-25T10:36:10.326Z,96793.00
2023-02-25T10:41:13.479Z,96793.41
2023-02-25T10:46:27.240Z,96801.16
2023-02-25T10:51:29.915Z,96801.69
2023-02-25T10:56:39.919Z,96796.12
2023-02-25T11:01:42.791Z,96800.00
2023-02-25T11:06:45.094Z,96789.06
2023-02-25T11:12:08.906Z,96788.08
2023-02-25T11:17:13.296Z,96804.30
2023-02-25T11:22:24.077Z,96807.06
2023-02-25T11:27:39.305Z,96798.91
2023-02-25T11:32:54.969Z,96809.43
2023-02-25T11:37:58.739Z,96812.48
2023-02-25T11:43:17.160Z,96813.21
2023-02-25T11:48:23.949Z,96830.42
2023-02-25T11:53:47.662Z,96812.09
2023-02-25T11:59:07.006Z,96816.58
2023-02-25T12:04:59.429Z,96818.23
2023-02-25T12:10:17.063Z,96824.23
2023-02-25T12:15:50.237Z,96821.50
2023-02-25T12:21:33.510Z,96828.42
2023-02-25T12:26:54.026Z,96826.75
2023-02-25T12:32:21.384Z,96828.83
2023-02-25T12:37:29.664Z,96841.18
2023-02-25T12:42:31.392Z,96844.55
2023-02-25T12:47:39.036Z,96864.34
2023-02-25T12:52:54.142Z,96902.34
2023-02-25T12:58:20.020Z,96901.25
2023-02-25T13:03:29.820Z,96905.29
2023-02-25T13:08:46.872Z,96915.73
2023-02-25T13:13:57.110Z,96915.06
2023-02-25T13:19:36.015Z,96909.86
2023-02-25T13:24:56.674Z,96917.64
2023-02-25T13:30:15.283Z,96925.73
2023-02-25T13:35:42.914Z,96934.05
2023-02-25T13:40:48.317Z,96936.55
2023-02-25T13:46:06.124Z,96939.55
2023-02-25T13:51:13.557Z,96944.95
2023-02-25T13:56:30.433Z,96945.29
2023-02-25T14:01:57.691Z,96953.19
2023-02-25T14:07:42.391Z,96963.80
2023-02-25T14:12:49.845Z,96975.94
2023-02-25T14:18:29.684Z,96974.59
2023-02-25T14:23:50.362Z,96976.34
2023-02-25T14:29:12.027Z,96978.27
2023-02-25T14:34:28.945Z,96985.40
2023-02-25T14:39:51.881Z,96992.67
2023-02-25T14:45:14.522Z,96990.15
2023-02-25T14:50:24.121Z,97012.27
2023-02-25T14:55:41.583Z,97026.11
2023-02-25T15:00:52.833Z,97033.31
2023-02-25T15:06:03.408Z,97033.77
2023-02-25T15:11:14.063Z,97032.02
2023-02-25T15:16:21.567Z,97042.92
2023-02-25T15:21:39.424Z,97055.19
2023-02-25T15:26:51.733Z,97064.41
2023-02-25T15:32:21.594Z,97068.27
2023-02-25T15:37:37.198Z,97072.80
2023-02-25T15:42:47.516Z,97074.11
2023-02-25T15:47:49.615Z,97078.24
2023-02-25T15:52:56.730Z,97089.45
2023-02-25T15:58:23.607Z,97094.92
2023-02-25T16:03:31.394Z,97104.80
2023-02-25T16:08:44.290Z,97112.95
2023-02-25T16:13:46.292Z,97114.35
2023-02-25T16:18:50.631Z,97119.52
2023-02-25T16:23:54.538Z,97129.77
2023-02-25T16:29:14.958Z,97137.73
2023-02-25T16:34:22.853Z,97144.11
2023-02-25T16:39:27.798Z,97147.97
2023-02-25T16:44:36.492Z,97156.02
2023-02-25T16:49:46.159Z,97167.13
2023-02-25T16:54:56.631Z,97180.58
2023-02-25T17:00:14.757Z,97190.52
2023-02-25T17:05:26.646Z,97203.83
2023-02-25T17:10:46.866Z,97215.00
2023-02-25T17:15:48.595Z,97214.30
2023-02-25T17:20:52.682Z,97218.45
2023-02-25T17:25:55.178Z,97233.12
2023-02-25T17:31:27.889Z,97239.84
2023-02-25T17:36:33.384Z,97245.25
2023-02-25T17:41:36.367Z,97258.45
2023-02-25T17:46:43.953Z,97260.80
2023-02-25T17:51:46.419Z,97266.20
2023-02-25T17:56:59.885Z,97270.77
2023-02-25T18:02:03.061Z,97279.52
2023-02-25T18:07:35.383Z,97287.42
2023-02-25T18:12:39.353Z,97294.98
2023-02-25T18:17:47.302Z,97304.77
2023-02-25T18:22:49.462Z,97312.89
2023-02-25T18:27:53.775Z,97314.02
2023-02-25T18:32:57.351Z,97323.83
2023-02-25T18:38:00.409Z,97332.65
2023-02-25T18:43:03.807Z,97338.19
2023-02-25T18:48:07.009Z,97341.06
2023-02-25T18:53:21.115Z,97346.99
2023-02-25T18:58:24.379Z,97355.96
2023-02-25T19:03:33.832Z,97365.77
2023-02-25T19:08:35.849Z,97366.78
2023-02-25T19:13:41.399Z,97379.67
2023-02-25T19:18:43.469Z,97390.31
2023-02-25T19:23:46.149Z,97390.74
2023-02-25T19:28:47.968Z,97401.83
2023-02-25T19:33:49.632Z,97411.08
2023-02-25T19:38:51.302Z,97409.62
2023-02-25T19:43:54.219Z,97417.73
2023-02-25T19:48:57.113Z,97423.20
2023-02-25T19:54:00.298Z,97421.96
2023-02-25T19:59:02.406Z,97426.06
2023-02-25T20:04:04.980Z,97429.38
2023-02-25T20:09:09.227Z,97430.31
2023-02-25T20:14:12.459Z,97436.85
2023-02-25T20:19:14.203Z,97447.88
2023-02-25T20:24:15.970Z,97453.88
2023-02-25T20:29:18.319Z,97454.69
2023-02-25T20:34:21.762Z,97462.04
2023-02-25T20:39:26.610Z,97469.01
2023-02-25T20:44:28.287Z,97477.84
2023-02-25T20:49:30.140Z,97485.71
2023-02-25T20:54:31.852Z,97492.16
2023-02-25T20:59:35.042Z,97493.92
2023-02-25T21:04:37.357Z,97497.59
2023-02-25T21:09:39.559Z,97499.10
2023-02-25T21:14:41.623Z,97500.03
2023-02-25T21:19:43.740Z,97499.98
2023-02-25T21:24:45.559Z,97509.24
2023-02-25T21:29:49.981Z,97512.86
2023-02-25T21:34:51.688Z,97510.20
2023-02-25T21:39:53.959Z,97517.09
2023-02-25T21:44:55.847Z,97519.36
2023-02-25T21:49:57.548Z,97517.65
2023-02-25T21:54:59.262Z,97528.54
2023-02-25T22:00:01.935Z,97533.05
2023-02-25T22:05:13.946Z,97532.12
2023-02-25T22:10:15.891Z,97540.17
2023-02-25T22:15:22.990Z,97545.73
2023-02-25T22:20:24.719Z,97549.27
2023-02-25T22:25:26.375Z,97556.14
2023-02-25T22:30:28.164Z,97564.98
2023-02-25T22:35:29.927Z,97575.30
2023-02-25T22:40:31.626Z,97582.02
2023-02-25T22:45:33.720Z,97587.01
2023-02-25T22:50:49.336Z,97594.55
2023-02-25T22:55:51.335Z,97605.52
2023-02-25T23:00:54.402Z,97614.39
2023-02-25T23:05:56.138Z,97607.98
2023-02-25T23:11:19.183Z,97631.31
2023-02-25T23:16:24.521Z,97640.16
2023-02-25T23:21:27.800Z,97644.29
2023-02-25T23:26:34.058Z,97650.22
2023-02-25T23:31:38.351Z,97652.80
2023-02-25T23:36:42.250Z,97661.95
2023-02-25T23:41:44.200Z,97672.05
2023-02-25T23:46:46.001Z,97676.14
2023-02-25T23:51:48.409Z,97687.70
2023-02-25T23:56:50.880Z,97691.09
